sensor_id;sensor_type;location;lat;lon;timestamp;P1;durP1;ratioP1;P2;durP2;ratioP2
51718;SDS011;37795;53.236;5.704;2024-01-07T00:01:23;3.40;;;1.08;;
51718;SDS011;37795;53.236;5.704;2024-01-07T00:03:49;3.15;;;1.27;;
51718;SDS011;37795;53.236;5.704;2024-01-07T00:06:15;3.25;;;1.00;;
51718;SDS011;37795;53.236;5.704;2024-01-07T00:08:40;1.98;;;1.10;;
51718;SDS011;37795;53.236;5.704;2024-01-07T00:11:06;2.47;;;1.17;;
51718;SDS011;37795;53.236;5.704;2024-01-07T00:13:32;2.07;;;1.20;;
51718;SDS011;37795;53.236;5.704;2024-01-07T00:15:57;2.80;;;1.10;;
51718;SDS011;37795;53.236;5.704;2024-01-07T00:18:23;1.65;;;1.15;;
51718;SDS011;37795;53.236;5.704;2024-01-07T00:20:49;2.30;;;1.20;;
51718;SDS011;37795;53.236;5.704;2024-01-07T00:23:15;2.60;;;1.10;;
51718;SDS011;37795;53.236;5.704;2024-01-07T00:25:41;1.83;;;1.20;;
51718;SDS011;37795;53.236;5.704;2024-01-07T00:28:06;2.58;;;1.10;;
51718;SDS011;37795;53.236;5.704;2024-01-07T00:30:32;1.70;;;1.05;;
51718;SDS011;37795;53.236;5.704;2024-01-07T00:32:58;1.83;;;1.00;;
51718;SDS011;37795;53.236;5.704;2024-01-07T00:35:24;1.50;;;1.00;;
51718;SDS011;37795;53.236;5.704;2024-01-07T00:37:49;1.98;;;1.10;;
51718;SDS011;37795;53.236;5.704;2024-01-07T00:40:15;2.83;;;1.13;;
51718;SDS011;37795;53.236;5.704;2024-01-07T00:42:41;2.50;;;1.50;;
51718;SDS011;37795;53.236;5.704;2024-01-07T00:45:07;1.87;;;1.00;;
51718;SDS011;37795;53.236;5.704;2024-01-07T00:47:34;2.40;;;1.30;;
51718;SDS011;37795;53.236;5.704;2024-01-07T00:49:59;2.00;;;1.20;;
51718;SDS011;37795;53.236;5.704;2024-01-07T00:52:25;1.33;;;1.00;;
51718;SDS011;37795;53.236;5.704;2024-01-07T00:54:51;1.90;;;1.15;;
51718;SDS011;37795;53.236;5.704;2024-01-07T00:57:16;2.00;;;1.30;;
51718;SDS011;37795;53.236;5.704;2024-01-07T00:59:42;1.50;;;1.23;;
51718;SDS011;37795;53.236;5.704;2024-01-07T01:02:07;2.00;;;1.20;;
51718;SDS011;37795;53.236;5.704;2024-01-07T01:04:33;2.15;;;1.00;;
51718;SDS011;37795;53.236;5.704;2024-01-07T01:06:59;1.45;;;1.10;;
51718;SDS011;37795;53.236;5.704;2024-01-07T01:09:27;1.70;;;0.90;;
51718;SDS011;37795;53.236;5.704;2024-01-07T01:11:53;1.43;;;0.90;;
51718;SDS011;37795;53.236;5.704;2024-01-07T01:14:19;1.73;;;1.07;;
51718;SDS011;37795;53.236;5.704;2024-01-07T01:16:45;1.92;;;1.15;;
51718;SDS011;37795;53.236;5.704;2024-01-07T01:19:10;2.55;;;1.20;;
51718;SDS011;37795;53.236;5.704;2024-01-07T01:21:36;1.90;;;0.90;;
51718;SDS011;37795;53.236;5.704;2024-01-07T01:24:02;2.13;;;1.00;;
51718;SDS011;37795;53.236;5.704;2024-01-07T01:26:27;1.90;;;1.02;;
51718;SDS011;37795;53.236;5.704;2024-01-07T01:28:53;1.50;;;1.00;;
51718;SDS011;37795;53.236;5.704;2024-01-07T01:31:19;1.67;;;1.13;;
51718;SDS011;37795;53.236;5.704;2024-01-07T01:33:44;2.10;;;1.00;;
51718;SDS011;37795;53.236;5.704;2024-01-07T01:36:10;1.37;;;1.00;;
51718;SDS011;37795;53.236;5.704;2024-01-07T01:38:36;1.52;;;1.10;;
51718;SDS011;37795;53.236;5.704;2024-01-07T01:41:01;1.65;;;1.05;;
51718;SDS011;37795;53.236;5.704;2024-01-07T01:43:28;1.67;;;0.90;;
51718;SDS011;37795;53.236;5.704;2024-01-07T01:45:54;1.92;;;0.90;;
51718;SDS011;37795;53.236;5.704;2024-01-07T01:48:21;1.75;;;1.10;;
51718;SDS011;37795;53.236;5.704;2024-01-07T01:50:47;2.40;;;1.10;;
51718;SDS011;37795;53.236;5.704;2024-01-07T01:53:14;1.30;;;0.93;;
51718;SDS011;37795;53.236;5.704;2024-01-07T01:55:43;1.55;;;0.98;;
51718;SDS011;37795;53.236;5.704;2024-01-07T01:58:09;1.45;;;0.93;;
51718;SDS011;37795;53.236;5.704;2024-01-07T02:00:35;1.65;;;1.10;;
51718;SDS011;37795;53.236;5.704;2024-01-07T02:03:01;1.58;;;0.90;;
51718;SDS011;37795;53.236;5.704;2024-01-07T02:05:27;1.77;;;1.10;;
51718;SDS011;37795;53.236;5.704;2024-01-07T02:07:53;2.00;;;1.10;;
51718;SDS011;37795;53.236;5.704;2024-01-07T02:10:21;1.70;;;1.10;;
51718;SDS011;37795;53.236;5.704;2024-01-07T02:12:47;2.00;;;1.10;;
51718;SDS011;37795;53.236;5.704;2024-01-07T02:15:13;1.40;;;1.10;;
51718;SDS011;37795;53.236;5.704;2024-01-07T02:17:40;1.40;;;0.90;;
51718;SDS011;37795;53.236;5.704;2024-01-07T02:20:06;2.00;;;1.20;;
51718;SDS011;37795;53.236;5.704;2024-01-07T02:22:32;1.30;;;1.00;;
51718;SDS011;37795;53.236;5.704;2024-01-07T02:24:58;1.60;;;0.80;;
51718;SDS011;37795;53.236;5.704;2024-01-07T02:27:23;1.70;;;1.03;;
51718;SDS011;37795;53.236;5.704;2024-01-07T02:29:49;1.30;;;0.80;;
51718;SDS011;37795;53.236;5.704;2024-01-07T02:32:15;1.75;;;0.98;;
51718;SDS011;37795;53.236;5.704;2024-01-07T02:34:40;1.40;;;0.80;;
51718;SDS011;37795;53.236;5.704;2024-01-07T02:37:06;1.27;;;0.80;;
51718;SDS011;37795;53.236;5.704;2024-01-07T02:39:32;1.20;;;1.00;;
51718;SDS011;37795;53.236;5.704;2024-01-07T02:41:57;1.52;;;1.10;;
51718;SDS011;37795;53.236;5.704;2024-01-07T02:44:23;2.40;;;1.00;;
51718;SDS011;37795;53.236;5.704;2024-01-07T02:46:49;1.95;;;1.08;;
51718;SDS011;37795;53.236;5.704;2024-01-07T02:49:15;1.60;;;0.90;;
51718;SDS011;37795;53.236;5.704;2024-01-07T02:51:40;1.27;;;0.90;;
51718;SDS011;37795;53.236;5.704;2024-01-07T02:54:06;1.33;;;1.00;;
51718;SDS011;37795;53.236;5.704;2024-01-07T02:56:32;1.57;;;1.00;;
51718;SDS011;37795;53.236;5.704;2024-01-07T02:58:57;1.15;;;0.82;;
51718;SDS011;37795;53.236;5.704;2024-01-07T03:01:23;1.40;;;1.00;;
51718;SDS011;37795;53.236;5.704;2024-01-07T03:03:49;1.23;;;0.90;;
51718;SDS011;37795;53.236;5.704;2024-01-07T03:06:15;1.83;;;0.90;;
51718;SDS011;37795;53.236;5.704;2024-01-07T03:08:41;1.27;;;0.90;;
51718;SDS011;37795;53.236;5.704;2024-01-07T03:11:08;1.90;;;0.97;;
51718;SDS011;37795;53.236;5.704;2024-01-07T03:13:33;1.13;;;0.85;;
51718;SDS011;37795;53.236;5.704;2024-01-07T03:15:59;1.60;;;1.20;;
51718;SDS011;37795;53.236;5.704;2024-01-07T03:18:26;1.43;;;0.87;;
51718;SDS011;37795;53.236;5.704;2024-01-07T03:20:52;1.20;;;0.90;;
51718;SDS011;37795;53.236;5.704;2024-01-07T03:23:18;1.37;;;0.90;;
51718;SDS011;37795;53.236;5.704;2024-01-07T03:25:43;1.40;;;1.00;;
51718;SDS011;37795;53.236;5.704;2024-01-07T03:28:09;1.90;;;0.93;;
51718;SDS011;37795;53.236;5.704;2024-01-07T03:30:35;1.50;;;0.98;;
51718;SDS011;37795;53.236;5.704;2024-01-07T03:33:00;1.13;;;0.80;;
51718;SDS011;37795;53.236;5.704;2024-01-07T03:35:27;1.80;;;0.90;;
51718;SDS011;37795;53.236;5.704;2024-01-07T03:37:52;1.33;;;1.00;;
51718;SDS011;37795;53.236;5.704;2024-01-07T03:40:18;1.50;;;0.93;;
51718;SDS011;37795;53.236;5.704;2024-01-07T03:42:44;1.63;;;1.00;;
51718;SDS011;37795;53.236;5.704;2024-01-07T03:45:09;1.20;;;0.90;;
51718;SDS011;37795;53.236;5.704;2024-01-07T03:47:35;1.40;;;0.80;;
51718;SDS011;37795;53.236;5.704;2024-01-07T03:50:01;1.17;;;0.80;;
51718;SDS011;37795;53.236;5.704;2024-01-07T03:52:26;1.50;;;0.80;;
51718;SDS011;37795;53.236;5.704;2024-01-07T03:54:53;1.15;;;1.05;;
51718;SDS011;37795;53.236;5.704;2024-01-07T03:57:19;1.15;;;0.85;;
51718;SDS011;37795;53.236;5.704;2024-01-07T03:59:45;1.70;;;0.93;;
51718;SDS011;37795;53.236;5.704;2024-01-07T04:02:10;1.37;;;1.00;;
51718;SDS011;37795;53.236;5.704;2024-01-07T04:04:37;1.75;;;0.80;;
51718;SDS011;37795;53.236;5.704;2024-01-07T04:07:02;1.00;;;0.70;;
51718;SDS011;37795;53.236;5.704;2024-01-07T04:09:28;1.75;;;0.85;;
51718;SDS011;37795;53.236;5.704;2024-01-07T04:11:54;1.30;;;0.83;;
51718;SDS011;37795;53.236;5.704;2024-01-07T04:14:19;1.40;;;0.90;;
51718;SDS011;37795;53.236;5.704;2024-01-07T04:16:45;1.00;;;0.73;;
51718;SDS011;37795;53.236;5.704;2024-01-07T04:19:11;1.27;;;0.80;;
51718;SDS011;37795;53.236;5.704;2024-01-07T04:21:36;1.60;;;0.90;;
51718;SDS011;37795;53.236;5.704;2024-01-07T04:24:02;1.00;;;0.80;;
51718;SDS011;37795;53.236;5.704;2024-01-07T04:26:28;1.23;;;1.00;;
51718;SDS011;37795;53.236;5.704;2024-01-07T04:28:54;1.27;;;0.90;;
51718;SDS011;37795;53.236;5.704;2024-01-07T04:31:19;1.10;;;0.80;;
51718;SDS011;37795;53.236;5.704;2024-01-07T04:33:45;1.30;;;1.20;;
51718;SDS011;37795;53.236;5.704;2024-01-07T04:36:11;1.43;;;1.00;;
51718;SDS011;37795;53.236;5.704;2024-01-07T04:38:36;1.33;;;0.90;;
51718;SDS011;37795;53.236;5.704;2024-01-07T04:41:02;1.40;;;0.80;;
51718;SDS011;37795;53.236;5.704;2024-01-07T04:43:28;1.35;;;1.05;;
51718;SDS011;37795;53.236;5.704;2024-01-07T04:45:53;1.40;;;0.70;;
51718;SDS011;37795;53.236;5.704;2024-01-07T04:48:19;1.42;;;0.80;;
51718;SDS011;37795;53.236;5.704;2024-01-07T04:50:45;1.48;;;0.80;;
51718;SDS011;37795;53.236;5.704;2024-01-07T04:53:11;1.17;;;0.80;;
51718;SDS011;37795;53.236;5.704;2024-01-07T04:55:37;0.97;;;0.70;;
51718;SDS011;37795;53.236;5.704;2024-01-07T04:58:02;1.10;;;0.80;;
51718;SDS011;37795;53.236;5.704;2024-01-07T05:00:29;1.35;;;0.82;;
51718;SDS011;37795;53.236;5.704;2024-01-07T05:02:55;1.73;;;0.90;;
51718;SDS011;37795;53.236;5.704;2024-01-07T05:05:21;1.63;;;0.80;;
51718;SDS011;37795;53.236;5.704;2024-01-07T05:07:47;1.65;;;0.90;;
51718;SDS011;37795;53.236;5.704;2024-01-07T05:10:12;0.90;;;0.80;;
51718;SDS011;37795;53.236;5.704;2024-01-07T05:12:38;1.17;;;0.80;;
51718;SDS011;37795;53.236;5.704;2024-01-07T05:15:04;1.00;;;0.80;;
51718;SDS011;37795;53.236;5.704;2024-01-07T05:17:30;1.50;;;0.80;;
51718;SDS011;37795;53.236;5.704;2024-01-07T05:19:55;1.27;;;0.80;;
51718;SDS011;37795;53.236;5.704;2024-01-07T05:22:21;1.30;;;0.80;;
51718;SDS011;37795;53.236;5.704;2024-01-07T05:24:47;0.90;;;0.70;;
51718;SDS011;37795;53.236;5.704;2024-01-07T05:27:13;1.08;;;0.80;;
51718;SDS011;37795;53.236;5.704;2024-01-07T05:29:38;1.53;;;1.00;;
51718;SDS011;37795;53.236;5.704;2024-01-07T05:32:04;1.50;;;0.80;;
51718;SDS011;37795;53.236;5.704;2024-01-07T05:34:30;1.10;;;0.90;;
51718;SDS011;37795;53.236;5.704;2024-01-07T05:36:56;1.40;;;0.90;;
51718;SDS011;37795;53.236;5.704;2024-01-07T05:39:22;1.53;;;0.80;;
51718;SDS011;37795;53.236;5.704;2024-01-07T05:41:48;1.07;;;0.87;;
51718;SDS011;37795;53.236;5.704;2024-01-07T05:44:13;1.98;;;1.00;;
51718;SDS011;37795;53.236;5.704;2024-01-07T05:46:39;1.50;;;0.90;;
51718;SDS011;37795;53.236;5.704;2024-01-07T05:49:05;1.10;;;0.80;;
51718;SDS011;37795;53.236;5.704;2024-01-07T05:51:31;1.00;;;0.70;;
51718;SDS011;37795;53.236;5.704;2024-01-07T05:53:57;1.20;;;0.85;;
51718;SDS011;37795;53.236;5.704;2024-01-07T05:56:23;1.05;;;0.70;;
51718;SDS011;37795;53.236;5.704;2024-01-07T05:58:48;0.80;;;0.70;;
51718;SDS011;37795;53.236;5.704;2024-01-07T06:01:21;1.00;;;0.75;;
51718;SDS011;37795;53.236;5.704;2024-01-07T06:03:47;0.90;;;0.50;;
51718;SDS011;37795;53.236;5.704;2024-01-07T06:06:14;1.30;;;0.80;;
51718;SDS011;37795;53.236;5.704;2024-01-07T06:08:41;1.50;;;0.80;;
51718;SDS011;37795;53.236;5.704;2024-01-07T06:11:07;1.02;;;0.77;;
51718;SDS011;37795;53.236;5.704;2024-01-07T06:13:33;1.00;;;0.90;;
51718;SDS011;37795;53.236;5.704;2024-01-07T06:15:59;1.27;;;0.90;;
51718;SDS011;37795;53.236;5.704;2024-01-07T06:18:24;1.90;;;0.90;;
51718;SDS011;37795;53.236;5.704;2024-01-07T06:20:50;1.13;;;0.80;;
51718;SDS011;37795;53.236;5.704;2024-01-07T06:23:16;1.00;;;0.70;;
51718;SDS011;37795;53.236;5.704;2024-01-07T06:25:41;1.40;;;0.87;;
51718;SDS011;37795;53.236;5.704;2024-01-07T06:28:07;1.10;;;0.80;;
51718;SDS011;37795;53.236;5.704;2024-01-07T06:30:35;1.00;;;0.80;;
51718;SDS011;37795;53.236;5.704;2024-01-07T06:33:00;1.48;;;0.90;;
51718;SDS011;37795;53.236;5.704;2024-01-07T06:35:26;1.20;;;0.80;;
51718;SDS011;37795;53.236;5.704;2024-01-07T06:37:52;1.13;;;0.70;;
51718;SDS011;37795;53.236;5.704;2024-01-07T06:40:18;1.10;;;0.90;;
51718;SDS011;37795;53.236;5.704;2024-01-07T06:42:44;0.90;;;0.70;;
51718;SDS011;37795;53.236;5.704;2024-01-07T06:52:14;1.25;;;0.75;;
51718;SDS011;37795;53.236;5.704;2024-01-07T06:54:39;1.30;;;0.80;;
51718;SDS011;37795;53.236;5.704;2024-01-07T06:57:05;1.10;;;0.90;;
51718;SDS011;37795;53.236;5.704;2024-01-07T06:59:31;0.97;;;0.80;;
51718;SDS011;37795;53.236;5.704;2024-01-07T07:01:56;1.90;;;0.90;;
51718;SDS011;37795;53.236;5.704;2024-01-07T07:04:22;1.23;;;1.05;;
51718;SDS011;37795;53.236;5.704;2024-01-07T07:06:48;0.80;;;0.70;;
51718;SDS011;37795;53.236;5.704;2024-01-07T07:09:13;0.90;;;0.70;;
51718;SDS011;37795;53.236;5.704;2024-01-07T07:11:40;1.30;;;0.80;;
51718;SDS011;37795;53.236;5.704;2024-01-07T07:14:06;1.17;;;1.00;;
51718;SDS011;37795;53.236;5.704;2024-01-07T07:16:32;0.80;;;0.70;;
51718;SDS011;37795;53.236;5.704;2024-01-07T07:18:57;1.15;;;0.80;;
51718;SDS011;37795;53.236;5.704;2024-01-07T07:21:23;0.90;;;0.60;;
51718;SDS011;37795;53.236;5.704;2024-01-07T07:23:49;1.00;;;0.90;;
51718;SDS011;37795;53.236;5.704;2024-01-07T07:26:14;0.95;;;0.77;;
51718;SDS011;37795;53.236;5.704;2024-01-07T07:28:40;0.80;;;0.70;;
51718;SDS011;37795;53.236;5.704;2024-01-07T07:31:05;1.00;;;0.70;;
51718;SDS011;37795;53.236;5.704;2024-01-07T07:33:31;0.73;;;0.50;;
51718;SDS011;37795;53.236;5.704;2024-01-07T07:35:57;0.90;;;0.77;;
51718;SDS011;37795;53.236;5.704;2024-01-07T07:38:22;1.40;;;0.63;;
51718;SDS011;37795;53.236;5.704;2024-01-07T07:40:48;1.10;;;0.70;;
51718;SDS011;37795;53.236;5.704;2024-01-07T07:43:18;1.00;;;0.63;;
51718;SDS011;37795;53.236;5.704;2024-01-07T07:45:45;1.38;;;0.82;;
51718;SDS011;37795;53.236;5.704;2024-01-07T07:48:11;0.97;;;0.70;;
51718;SDS011;37795;53.236;5.704;2024-01-07T07:50:37;0.90;;;0.60;;
51718;SDS011;37795;53.236;5.704;2024-01-07T07:53:02;1.00;;;0.65;;
51718;SDS011;37795;53.236;5.704;2024-01-07T07:55:28;1.30;;;0.70;;
51718;SDS011;37795;53.236;5.704;2024-01-07T07:57:54;0.93;;;0.70;;
51718;SDS011;37795;53.236;5.704;2024-01-07T08:00:20;1.00;;;0.60;;
51718;SDS011;37795;53.236;5.704;2024-01-07T08:02:45;0.90;;;0.73;;
51718;SDS011;37795;53.236;5.704;2024-01-07T08:05:11;0.60;;;0.57;;
51718;SDS011;37795;53.236;5.704;2024-01-07T08:07:37;1.02;;;0.60;;
51718;SDS011;37795;53.236;5.704;2024-01-07T08:10:03;1.00;;;0.70;;
51718;SDS011;37795;53.236;5.704;2024-01-07T08:12:29;0.90;;;0.80;;
51718;SDS011;37795;53.236;5.704;2024-01-07T08:14:54;2.20;;;0.70;;
51718;SDS011;37795;53.236;5.704;2024-01-07T08:17:20;1.00;;;0.80;;
51718;SDS011;37795;53.236;5.704;2024-01-07T08:19:46;0.90;;;0.63;;
51718;SDS011;37795;53.236;5.704;2024-01-07T08:22:11;1.25;;;0.73;;
51718;SDS011;37795;53.236;5.704;2024-01-07T08:24:37;0.70;;;0.50;;
51718;SDS011;37795;53.236;5.704;2024-01-07T08:27:03;0.80;;;0.60;;
51718;SDS011;37795;53.236;5.704;2024-01-07T08:29:29;2.08;;;0.70;;
51718;SDS011;37795;53.236;5.704;2024-01-07T08:31:55;0.80;;;0.60;;
51718;SDS011;37795;53.236;5.704;2024-01-07T08:34:20;1.57;;;0.80;;
51718;SDS011;37795;53.236;5.704;2024-01-07T08:36:46;0.80;;;0.60;;
51718;SDS011;37795;53.236;5.704;2024-01-07T08:39:15;1.05;;;0.73;;
51718;SDS011;37795;53.236;5.704;2024-01-07T08:41:41;0.70;;;0.60;;
51718;SDS011;37795;53.236;5.704;2024-01-07T08:44:07;0.90;;;0.70;;
51718;SDS011;37795;53.236;5.704;2024-01-07T08:46:33;0.93;;;0.77;;
51718;SDS011;37795;53.236;5.704;2024-01-07T08:48:59;0.87;;;0.60;;
51718;SDS011;37795;53.236;5.704;2024-01-07T08:51:26;0.90;;;0.60;;
51718;SDS011;37795;53.236;5.704;2024-01-07T08:53:52;0.70;;;0.60;;
51718;SDS011;37795;53.236;5.704;2024-01-07T08:56:17;0.60;;;0.50;;
51718;SDS011;37795;53.236;5.704;2024-01-07T08:58:43;0.90;;;0.60;;
51718;SDS011;37795;53.236;5.704;2024-01-07T09:01:09;0.93;;;0.60;;
51718;SDS011;37795;53.236;5.704;2024-01-07T09:03:34;1.65;;;0.50;;
51718;SDS011;37795;53.236;5.704;2024-01-07T09:06:00;1.13;;;0.77;;
51718;SDS011;37795;53.236;5.704;2024-01-07T09:08:26;0.77;;;0.50;;
51718;SDS011;37795;53.236;5.704;2024-01-07T09:10:51;1.20;;;0.57;;
51718;SDS011;37795;53.236;5.704;2024-01-07T09:13:17;1.13;;;0.60;;
51718;SDS011;37795;53.236;5.704;2024-01-07T09:15:43;0.88;;;0.70;;
51718;SDS011;37795;53.236;5.704;2024-01-07T09:18:08;1.10;;;0.70;;
51718;SDS011;37795;53.236;5.704;2024-01-07T09:20:34;2.00;;;0.50;;
51718;SDS011;37795;53.236;5.704;2024-01-07T09:23:00;4.67;;;1.23;;
51718;SDS011;37795;53.236;5.704;2024-01-07T09:25:25;1.20;;;0.60;;
51718;SDS011;37795;53.236;5.704;2024-01-07T09:27:51;1.48;;;0.77;;
51718;SDS011;37795;53.236;5.704;2024-01-07T09:30:17;1.95;;;0.70;;
51718;SDS011;37795;53.236;5.704;2024-01-07T09:32:43;4.63;;;0.90;;
51718;SDS011;37795;53.236;5.704;2024-01-07T09:35:09;3.42;;;0.95;;
51718;SDS011;37795;53.236;5.704;2024-01-07T09:37:35;2.93;;;0.70;;
51718;SDS011;37795;53.236;5.704;2024-01-07T09:40:01;2.92;;;0.90;;
51718;SDS011;37795;53.236;5.704;2024-01-07T09:42:29;2.20;;;0.70;;
51718;SDS011;37795;53.236;5.704;2024-01-07T09:44:55;2.45;;;0.90;;
51718;SDS011;37795;53.236;5.704;2024-01-07T09:47:21;4.20;;;0.90;;
51718;SDS011;37795;53.236;5.704;2024-01-07T09:49:48;1.77;;;0.80;;
51718;SDS011;37795;53.236;5.704;2024-01-07T09:52:14;2.25;;;0.70;;
51718;SDS011;37795;53.236;5.704;2024-01-07T09:54:42;4.38;;;0.80;;
51718;SDS011;37795;53.236;5.704;2024-01-07T09:57:15;1.88;;;0.70;;
51718;SDS011;37795;53.236;5.704;2024-01-07T09:59:41;3.80;;;1.00;;
51718;SDS011;37795;53.236;5.704;2024-01-07T10:02:07;1.88;;;0.60;;
51718;SDS011;37795;53.236;5.704;2024-01-07T10:04:33;1.60;;;0.50;;
51718;SDS011;37795;53.236;5.704;2024-01-07T10:06:59;5.63;;;0.80;;
51718;SDS011;37795;53.236;5.704;2024-01-07T10:09:29;8.03;;;1.03;;
51718;SDS011;37795;53.236;5.704;2024-01-07T10:11:57;3.40;;;1.10;;
51718;SDS011;37795;53.236;5.704;2024-01-07T10:14:23;4.07;;;0.97;;
51718;SDS011;37795;53.236;5.704;2024-01-07T10:16:52;2.58;;;1.05;;
51718;SDS011;37795;53.236;5.704;2024-01-07T10:19:21;3.58;;;0.80;;
51718;SDS011;37795;53.236;5.704;2024-01-07T10:22:00;3.00;;;0.95;;
51718;SDS011;37795;53.236;5.704;2024-01-07T10:24:29;4.68;;;1.10;;
51718;SDS011;37795;53.236;5.704;2024-01-07T10:27:04;4.85;;;0.82;;
51718;SDS011;37795;53.236;5.704;2024-01-07T10:29:31;5.22;;;0.88;;
51718;SDS011;37795;53.236;5.704;2024-01-07T10:31:57;2.25;;;0.75;;
51718;SDS011;37795;53.236;5.704;2024-01-07T10:34:24;4.33;;;1.10;;
51718;SDS011;37795;53.236;5.704;2024-01-07T10:36:51;3.58;;;1.08;;
51718;SDS011;37795;53.236;5.704;2024-01-07T10:39:19;4.60;;;0.90;;
51718;SDS011;37795;53.236;5.704;2024-01-07T10:41:45;2.63;;;0.83;;
51718;SDS011;37795;53.236;5.704;2024-01-07T10:44:12;5.70;;;1.03;;
51718;SDS011;37795;53.236;5.704;2024-01-07T10:52:13;3.58;;;0.90;;
51718;SDS011;37795;53.236;5.704;2024-01-07T10:54:40;2.53;;;0.90;;
51718;SDS011;37795;53.236;5.704;2024-01-07T10:57:11;3.92;;;1.10;;
51718;SDS011;37795;53.236;5.704;2024-01-07T10:59:41;2.15;;;0.77;;
51718;SDS011;37795;53.236;5.704;2024-01-07T11:02:09;2.78;;;1.20;;
51718;SDS011;37795;53.236;5.704;2024-01-07T11:04:57;3.00;;;0.93;;
51718;SDS011;37795;53.236;5.704;2024-01-07T11:10:48;2.30;;;0.90;;
51718;SDS011;37795;53.236;5.704;2024-01-07T11:13:37;5.80;;;0.95;;
51718;SDS011;37795;53.236;5.704;2024-01-07T11:16:04;5.63;;;1.15;;
51718;SDS011;37795;53.236;5.704;2024-01-07T11:18:46;7.97;;;1.45;;
51718;SDS011;37795;53.236;5.704;2024-01-07T11:21:22;10.65;;;1.40;;
51718;SDS011;37795;53.236;5.704;2024-01-07T11:23:49;6.40;;;1.02;;
51718;SDS011;37795;53.236;5.704;2024-01-07T11:26:18;6.67;;;1.00;;
51718;SDS011;37795;53.236;5.704;2024-01-07T11:28:52;5.82;;;1.02;;
51718;SDS011;37795;53.236;5.704;2024-01-07T11:31:42;8.53;;;1.43;;
51718;SDS011;37795;53.236;5.704;2024-01-07T11:34:08;10.02;;;1.10;;
51718;SDS011;37795;53.236;5.704;2024-01-07T11:36:37;4.82;;;1.00;;
51718;SDS011;37795;53.236;5.704;2024-01-07T11:39:04;6.27;;;1.50;;
51718;SDS011;37795;53.236;5.704;2024-01-07T11:41:33;4.70;;;1.20;;
51718;SDS011;37795;53.236;5.704;2024-01-07T11:44:00;3.65;;;0.90;;
51718;SDS011;37795;53.236;5.704;2024-01-07T11:46:28;8.02;;;1.55;;
51718;SDS011;37795;53.236;5.704;2024-01-07T11:48:58;3.83;;;1.10;;
51718;SDS011;37795;53.236;5.704;2024-01-07T11:51:28;2.75;;;0.80;;
51718;SDS011;37795;53.236;5.704;2024-01-07T11:53:55;3.20;;;0.95;;
51718;SDS011;37795;53.236;5.704;2024-01-07T11:56:22;3.70;;;0.88;;
51718;SDS011;37795;53.236;5.704;2024-01-07T11:58:49;3.60;;;0.95;;
51718;SDS011;37795;53.236;5.704;2024-01-07T12:01:15;3.87;;;0.90;;
51718;SDS011;37795;53.236;5.704;2024-01-07T12:03:43;4.57;;;0.80;;
51718;SDS011;37795;53.236;5.704;2024-01-07T12:06:09;5.75;;;1.00;;
51718;SDS011;37795;53.236;5.704;2024-01-07T12:08:45;3.20;;;0.80;;
51718;SDS011;37795;53.236;5.704;2024-01-07T12:11:12;5.75;;;1.40;;
51718;SDS011;37795;53.236;5.704;2024-01-07T12:13:39;4.65;;;1.33;;
51718;SDS011;37795;53.236;5.704;2024-01-07T12:16:05;3.53;;;0.80;;
51718;SDS011;37795;53.236;5.704;2024-01-07T12:18:32;2.67;;;0.90;;
51718;SDS011;37795;53.236;5.704;2024-01-07T12:20:59;3.73;;;1.20;;
51718;SDS011;37795;53.236;5.704;2024-01-07T12:23:28;2.27;;;0.80;;
51718;SDS011;37795;53.236;5.704;2024-01-07T12:25:53;4.68;;;0.75;;
51718;SDS011;37795;53.236;5.704;2024-01-07T12:28:21;4.07;;;0.80;;
51718;SDS011;37795;53.236;5.704;2024-01-07T12:30:49;2.50;;;0.90;;
51718;SDS011;37795;53.236;5.704;2024-01-07T12:33:19;2.87;;;0.73;;
51718;SDS011;37795;53.236;5.704;2024-01-07T12:35:46;4.47;;;1.00;;
51718;SDS011;37795;53.236;5.704;2024-01-07T12:38:12;2.35;;;0.70;;
51718;SDS011;37795;53.236;5.704;2024-01-07T12:40:38;3.20;;;0.70;;
51718;SDS011;37795;53.236;5.704;2024-01-07T12:43:04;3.53;;;0.90;;
51718;SDS011;37795;53.236;5.704;2024-01-07T12:45:32;2.38;;;0.90;;
51718;SDS011;37795;53.236;5.704;2024-01-07T12:47:58;4.20;;;0.90;;
51718;SDS011;37795;53.236;5.704;2024-01-07T12:50:27;3.80;;;1.00;;
51718;SDS011;37795;53.236;5.704;2024-01-07T12:52:55;3.10;;;0.70;;
51718;SDS011;37795;53.236;5.704;2024-01-07T12:55:22;3.20;;;0.85;;
51718;SDS011;37795;53.236;5.704;2024-01-07T12:57:48;2.50;;;0.80;;
51718;SDS011;37795;53.236;5.704;2024-01-07T13:00:14;4.55;;;1.13;;
51718;SDS011;37795;53.236;5.704;2024-01-07T13:02:41;5.97;;;1.00;;
51718;SDS011;37795;53.236;5.704;2024-01-07T13:05:07;4.93;;;1.10;;
51718;SDS011;37795;53.236;5.704;2024-01-07T13:07:33;2.67;;;0.90;;
51718;SDS011;37795;53.236;5.704;2024-01-07T13:09:59;1.43;;;0.80;;
51718;SDS011;37795;53.236;5.704;2024-01-07T13:12:25;2.75;;;0.70;;
51718;SDS011;37795;53.236;5.704;2024-01-07T13:14:54;3.97;;;0.93;;
51718;SDS011;37795;53.236;5.704;2024-01-07T13:17:19;2.53;;;1.13;;
51718;SDS011;37795;53.236;5.704;2024-01-07T13:19:45;2.15;;;0.70;;
51718;SDS011;37795;53.236;5.704;2024-01-07T13:22:11;2.28;;;0.70;;
51718;SDS011;37795;53.236;5.704;2024-01-07T13:24:36;5.53;;;0.70;;
51718;SDS011;37795;53.236;5.704;2024-01-07T13:27:02;2.08;;;0.70;;
51718;SDS011;37795;53.236;5.704;2024-01-07T13:29:29;2.38;;;0.80;;
51718;SDS011;37795;53.236;5.704;2024-01-07T13:31:54;2.10;;;0.90;;
51718;SDS011;37795;53.236;5.704;2024-01-07T13:34:20;1.90;;;0.60;;
51718;SDS011;37795;53.236;5.704;2024-01-07T13:36:46;3.13;;;0.80;;
51718;SDS011;37795;53.236;5.704;2024-01-07T13:39:11;1.65;;;0.60;;
51718;SDS011;37795;53.236;5.704;2024-01-07T13:41:37;1.63;;;0.70;;
51718;SDS011;37795;53.236;5.704;2024-01-07T13:44:04;1.90;;;0.60;;
51718;SDS011;37795;53.236;5.704;2024-01-07T13:46:30;1.57;;;0.80;;
51718;SDS011;37795;53.236;5.704;2024-01-07T13:48:55;1.40;;;0.60;;
51718;SDS011;37795;53.236;5.704;2024-01-07T13:51:21;2.10;;;0.80;;
51718;SDS011;37795;53.236;5.704;2024-01-07T13:53:47;2.60;;;0.68;;
51718;SDS011;37795;53.236;5.704;2024-01-07T13:56:13;3.00;;;0.82;;
51718;SDS011;37795;53.236;5.704;2024-01-07T13:58:38;2.30;;;0.70;;
51718;SDS011;37795;53.236;5.704;2024-01-07T14:01:04;1.52;;;0.70;;
51718;SDS011;37795;53.236;5.704;2024-01-07T14:03:33;2.17;;;0.70;;
51718;SDS011;37795;53.236;5.704;2024-01-07T14:05:59;1.87;;;0.70;;
51718;SDS011;37795;53.236;5.704;2024-01-07T14:08:28;2.35;;;0.80;;
51718;SDS011;37795;53.236;5.704;2024-01-07T14:10:54;1.40;;;0.60;;
51718;SDS011;37795;53.236;5.704;2024-01-07T14:13:19;1.53;;;0.80;;
51718;SDS011;37795;53.236;5.704;2024-01-07T14:15:45;2.37;;;0.80;;
51718;SDS011;37795;53.236;5.704;2024-01-07T14:18:11;2.58;;;0.80;;
51718;SDS011;37795;53.236;5.704;2024-01-07T14:20:41;2.08;;;0.80;;
51718;SDS011;37795;53.236;5.704;2024-01-07T14:23:07;1.90;;;0.80;;
51718;SDS011;37795;53.236;5.704;2024-01-07T14:25:33;1.38;;;0.55;;
51718;SDS011;37795;53.236;5.704;2024-01-07T14:27:58;1.90;;;0.88;;
51718;SDS011;37795;53.236;5.704;2024-01-07T14:30:24;2.33;;;0.80;;
51718;SDS011;37795;53.236;5.704;2024-01-07T14:32:49;0.97;;;0.70;;
51718;SDS011;37795;53.236;5.704;2024-01-07T14:35:15;1.10;;;0.67;;
51718;SDS011;37795;53.236;5.704;2024-01-07T14:37:41;1.20;;;0.60;;
51718;SDS011;37795;53.236;5.704;2024-01-07T14:40:07;1.15;;;0.70;;
51718;SDS011;37795;53.236;5.704;2024-01-07T14:42:33;3.00;;;0.90;;
51718;SDS011;37795;53.236;5.704;2024-01-07T14:44:59;1.60;;;0.70;;
51718;SDS011;37795;53.236;5.704;2024-01-07T14:47:25;2.60;;;0.77;;
51718;SDS011;37795;53.236;5.704;2024-01-07T14:49:50;1.70;;;0.70;;
51718;SDS011;37795;53.236;5.704;2024-01-07T14:52:16;4.43;;;0.98;;
51718;SDS011;37795;53.236;5.704;2024-01-07T14:54:42;2.40;;;0.60;;
51718;SDS011;37795;53.236;5.704;2024-01-07T14:57:07;1.90;;;0.60;;
51718;SDS011;37795;53.236;5.704;2024-01-07T14:59:34;1.77;;;0.60;;